createdAt,value
2023-05-17T00:02:06.737Z,54.59
2023-05-17T00:04:33.777Z,54.38
2023-05-17T00:07:00.721Z,54.58
2023-05-17T00:09:27.895Z,54.87
2023-05-17T00:11:54.810Z,54.65
2023-05-17T00:14:21.718Z,54.77
2023-05-17T00:16:48.625Z,55.05
2023-05-17T00:19:15.681Z,54.60
2023-05-17T00:21:43.158Z,55.21
2023-05-17T00:24:10.299Z,55.29
2023-05-17T00:26:37.288Z,55.23
2023-05-17T00:29:04.318Z,55.43
2023-05-17T00:31:31.391Z,55.62
2023-05-17T00:33:58.308Z,55.65
2023-05-17T00:36:25.224Z,55.90
2023-05-17T00:38:52.157Z,56.14
2023-05-17T00:41:19.099Z,56.04
2023-05-17T00:43:46.350Z,56.05
2023-05-17T00:46:13.922Z,55.95
2023-05-17T00:48:41.453Z,56.08
2023-05-17T00:51:08.862Z,56.44
2023-05-17T00:53:37.280Z,56.37
2023-05-17T00:56:07.393Z,56.19
2023-05-17T00:58:34.489Z,56.80
2023-05-17T01:01:02.182Z,56.75
2023-05-17T01:03:29.249Z,57.06
2023-05-17T01:05:56.445Z,56.74
2023-05-17T01:08:23.425Z,57.18
2023-05-17T01:11:27.582Z,56.96
2023-05-17T01:14:26.748Z,57.54
2023-05-17T01:17:12.214Z,57.88
2023-05-17T01:20:06.484Z,57.87
2023-05-17T01:22:47.309Z,57.93
2023-05-17T01:26:07.081Z,57.90
2023-05-17T01:28:34.958Z,58.05
2023-05-17T01:31:03.890Z,57.88
2023-05-17T01:33:32.209Z,57.91
2023-05-17T01:35:59.174Z,58.71
2023-05-17T01:38:26.159Z,58.67
2023-05-17T01:41:14.329Z,58.77
2023-05-17T01:43:53.072Z,58.43
2023-05-17T01:46:39.058Z,58.67
2023-05-17T01:49:22.338Z,58.64
2023-05-17T01:51:59.155Z,58.50
2023-05-17T01:54:42.418Z,58.52
2023-05-17T01:57:11.768Z,58.79
2023-05-17T01:59:39.792Z,58.67
2023-05-17T02:02:08.865Z,58.60
2023-05-17T02:04:36.778Z,58.72
2023-05-17T02:07:04.221Z,58.31
2023-05-17T02:09:31.319Z,58.44
2023-05-17T02:11:58.269Z,58.33
2023-05-17T02:14:25.318Z,58.30
2023-05-17T02:16:52.485Z,57.94
2023-05-17T02:19:19.498Z,57.77
2023-05-17T02:21:46.536Z,57.50
2023-05-17T02:24:13.453Z,57.40
2023-05-17T02:26:43.354Z,56.88
2023-05-17T02:29:11.226Z,56.76
2023-05-17T02:31:38.224Z,56.91
2023-05-17T02:34:05.233Z,56.88
2023-05-17T02:36:32.597Z,56.27
2023-05-17T02:38:59.811Z,56.36
2023-05-17T02:41:26.935Z,56.28
2023-05-17T02:43:53.864Z,56.16
2023-05-17T02:46:21.633Z,56.01
2023-05-17T02:48:48.546Z,56.03
2023-05-17T02:51:15.721Z,55.93
2023-05-17T02:53:42.922Z,56.05
2023-05-17T02:56:09.842Z,56.04
2023-05-17T02:58:36.974Z,55.81
2023-05-17T03:01:04.123Z,55.92
2023-05-17T03:03:31.837Z,55.78
2023-05-17T03:06:04.716Z,56.00
2023-05-17T03:08:32.480Z,56.03
2023-05-17T03:11:01.477Z,55.51
2023-05-17T03:13:28.650Z,55.70
2023-05-17T03:15:55.586Z,55.71
2023-05-17T03:18:22.805Z,55.94
2023-05-17T03:20:50.770Z,55.87
2023-05-17T03:23:18.096Z,55.88
2023-05-17T03:25:59.108Z,55.78
2023-05-17T03:28:28.015Z,55.85
2023-05-17T03:30:55.978Z,56.23
2023-05-17T03:33:23.502Z,56.07
2023-05-17T03:35:50.717Z,55.89
2023-05-17T03:38:17.850Z,56.12
2023-05-17T03:40:45.096Z,55.77
2023-05-17T03:43:12.212Z,55.92
2023-05-17T03:45:39.344Z,55.66
2023-05-17T03:48:06.975Z,55.88
2023-05-17T03:50:34.235Z,55.56
2023-05-17T03:53:01.181Z,55.77
2023-05-17T03:55:28.353Z,55.63
2023-05-17T03:57:55.466Z,55.74
2023-05-17T04:00:23.256Z,55.55
2023-05-17T04:02:53.194Z,55.78
2023-05-17T04:05:20.356Z,55.87
2023-05-17T04:07:48.490Z,55.19
2023-05-17T04:10:15.420Z,55.27
2023-05-17T04:12:42.349Z,54.78
2023-05-17T04:15:09.883Z,54.29
2023-05-17T04:17:38.539Z,53.80
2023-05-17T04:20:06.707Z,53.58
2023-05-17T04:22:34.751Z,53.04
2023-05-17T04:25:01.701Z,52.98
2023-05-17T04:27:29.430Z,52.92
2023-05-17T04:29:56.539Z,53.03
2023-05-17T04:32:24.164Z,52.49
2023-05-17T04:34:52.108Z,52.41
2023-05-17T04:37:20.068Z,52.32
2023-05-17T04:39:50.091Z,52.23
2023-05-17T04:42:17.115Z,52.35
2023-05-17T04:44:50.259Z,52.20
2023-05-17T04:47:17.375Z,52.42
2023-05-17T04:49:44.335Z,52.36
2023-05-17T04:52:11.335Z,52.17
2023-05-17T04:54:38.937Z,52.20
2023-05-17T04:57:06.038Z,52.07
2023-05-17T04:59:53.585Z,52.37
2023-05-17T05:02:21.538Z,52.24
2023-05-17T05:04:48.526Z,52.00
2023-05-17T05:07:15.726Z,51.80
2023-05-17T05:09:44.096Z,51.93
2023-05-17T05:12:12.053Z,51.67
2023-05-17T05:14:43.276Z,51.50
2023-05-17T05:17:10.412Z,51.25
2023-05-17T05:19:39.127Z,51.16
2023-05-17T05:22:06.774Z,51.32
2023-05-17T05:24:35.424Z,50.85
2023-05-17T05:27:04.428Z,50.78
2023-05-17T05:29:33.241Z,50.48
2023-05-17T05:32:00.389Z,49.93
2023-05-17T05:34:28.543Z,49.56
2023-05-17T05:36:55.862Z,49.19
2023-05-17T05:39:23.027Z,48.80
2023-05-17T05:41:51.842Z,48.28
2023-05-17T05:44:19.322Z,48.17
2023-05-17T05:46:46.658Z,48.24
2023-05-17T05:49:14.307Z,47.75
2023-05-17T05:51:41.357Z,47.29
2023-05-17T05:54:08.363Z,46.15
2023-05-17T05:56:35.264Z,46.34
2023-05-17T05:59:02.333Z,45.93
2023-05-17T06:01:29.638Z,45.42
2023-05-17T06:03:56.683Z,44.58
2023-05-17T06:06:23.674Z,44.35
2023-05-17T06:08:50.606Z,44.38
2023-05-17T06:11:18.580Z,44.06
2023-05-17T06:13:45.511Z,43.85
2023-05-17T06:16:12.393Z,42.33
2023-05-17T06:18:39.405Z,42.20
2023-05-17T06:21:06.453Z,42.21
2023-05-17T06:23:33.419Z,42.15
2023-05-17T06:26:01.012Z,42.21
2023-05-17T06:28:27.951Z,42.64
2023-05-17T06:30:54.855Z,43.06
2023-05-17T06:33:21.891Z,42.45
2023-05-17T06:35:56.894Z,42.22
2023-05-17T06:38:24.575Z,41.71
2023-05-17T06:40:55.666Z,42.01
2023-05-17T06:43:22.781Z,42.04
2023-05-17T06:45:49.740Z,41.92
2023-05-17T06:48:16.897Z,41.30
2023-05-17T06:50:43.969Z,41.39
2023-05-17T06:53:10.871Z,40.21
2023-05-17T06:55:37.930Z,40.54
2023-05-17T06:58:05.002Z,40.48
2023-05-17T07:00:32.457Z,40.13
2023-05-17T07:03:00.019Z,40.68
2023-05-17T07:05:29.173Z,40.70
2023-05-17T07:07:58.142Z,40.28
2023-05-17T07:10:25.333Z,39.90
2023-05-17T07:12:53.353Z,39.86
2023-05-17T07:15:20.402Z,39.88
2023-05-17T07:17:47.473Z,39.95
2023-05-17T07:20:15.033Z,40.08
2023-05-17T07:22:42.301Z,40.38
2023-05-17T07:25:09.931Z,39.63
2023-05-17T07:27:36.866Z,40.19
2023-05-17T07:30:04.450Z,39.84
2023-05-17T07:32:31.426Z,39.31
2023-05-17T07:34:58.428Z,39.70
2023-05-17T07:37:25.448Z,38.06
2023-05-17T07:39:52.358Z,37.66
2023-05-17T07:42:19.368Z,38.13
2023-05-17T07:44:48.605Z,36.82
2023-05-17T07:47:17.337Z,37.19
2023-05-17T07:49:47.292Z,37.56
2023-05-17T07:52:14.236Z,37.33
2023-05-17T07:54:41.233Z,36.71
2023-05-17T07:57:08.533Z,37.14
2023-05-17T07:59:35.554Z,36.69
2023-05-17T08:02:02.435Z,37.34
2023-05-17T08:04:29.637Z,38.15
2023-05-17T08:06:56.573Z,38.04
2023-05-17T08:09:23.459Z,38.45
2023-05-17T08:11:50.353Z,38.46
2023-05-17T08:14:18.024Z,38.63
2023-05-17T08:16:48.116Z,37.72
2023-05-17T08:19:16.664Z,38.22
2023-05-17T08:21:44.018Z,37.65
2023-05-17T08:24:11.604Z,37.47
2023-05-17T08:26:38.917Z,36.51
2023-05-17T08:29:06.164Z,36.84
2023-05-17T08:31:33.787Z,36.62
2023-05-17T08:34:00.797Z,37.16
2023-05-17T08:36:28.543Z,36.67
2023-05-17T08:38:55.673Z,35.56
2023-05-17T08:41:22.808Z,35.46
2023-05-17T08:43:50.986Z,35.71
2023-05-17T08:46:21.711Z,36.03
2023-05-17T08:48:51.929Z,35.85
2023-05-17T08:51:20.842Z,36.15
2023-05-17T08:53:48.151Z,35.83
2023-05-17T08:56:21.222Z,36.11
2023-05-17T08:58:57.239Z,36.18
2023-05-17T09:01:26.904Z,35.88
2023-05-17T09:03:55.014Z,35.69
2023-05-17T09:06:23.906Z,35.08
2023-05-17T09:08:54.605Z,34.88
2023-05-17T09:11:27.817Z,35.25
2023-05-17T09:13:59.392Z,34.48
2023-05-17T09:16:33.339Z,34.51
2023-05-17T09:19:00.440Z,34.07
2023-05-17T09:21:31.018Z,34.90
2023-05-17T09:24:07.097Z,35.18
2023-05-17T09:26:45.238Z,35.45
2023-05-17T09:29:16.758Z,34.16
2023-05-17T09:31:44.689Z,34.15
2023-05-17T09:34:12.335Z,34.42
2023-05-17T09:36:43.707Z,34.09
2023-05-17T09:39:13.663Z,35.05
2023-05-17T09:41:47.956Z,34.82
2023-05-17T09:44:15.834Z,34.18
2023-05-17T09:46:47.308Z,34.71
2023-05-17T09:49:15.986Z,33.88
2023-05-17T09:51:45.446Z,33.92
2023-05-17T09:54:12.465Z,33.56
2023-05-17T09:56:39.836Z,33.51
2023-05-17T09:59:17.013Z,33.82
2023-05-17T10:01:45.757Z,34.09
2023-05-17T10:04:14.734Z,33.99
2023-05-17T10:06:49.832Z,34.12
2023-05-17T10:09:21.675Z,34.34
2023-05-17T10:11:48.683Z,34.49
2023-05-17T10:14:27.787Z,34.33
2023-05-17T10:16:55.308Z,33.71
2023-05-17T10:19:23.664Z,34.05
2023-05-17T10:21:52.348Z,33.60
2023-05-17T10:24:21.769Z,33.96
2023-05-17T10:26:51.239Z,32.89
2023-05-17T10:29:20.982Z,33.35
2023-05-17T10:31:50.242Z,33.18
2023-05-17T10:34:19.692Z,33.33
2023-05-17T10:36:49.238Z,32.87
2023-05-17T10:39:16.743Z,32.88
2023-05-17T10:41:46.749Z,32.71
2023-05-17T10:44:16.300Z,33.00
2023-05-17T10:46:54.222Z,33.42
2023-05-17T10:49:27.120Z,33.51
2023-05-17T10:51:54.620Z,33.39
2023-05-17T10:54:21.605Z,32.80
2023-05-17T10:56:53.592Z,31.99
2023-05-17T10:59:26.832Z,32.76
2023-05-17T11:02:08.269Z,34.01
2023-05-17T11:04:52.668Z,33.15
2023-05-17T11:07:27.770Z,33.07
2023-05-17T11:10:03.652Z,32.98
2023-05-17T11:12:38.383Z,32.48
2023-05-17T11:15:13.442Z,32.08
2023-05-17T11:17:43.513Z,32.12
2023-05-17T11:20:30.521Z,32.00
2023-05-17T11:23:04.914Z,32.43
2023-05-17T11:25:38.840Z,32.11
2023-05-17T11:28:11.224Z,31.75
2023-05-17T11:30:51.314Z,31.51
2023-05-17T11:33:29.715Z,31.88
2023-05-17T11:36:06.865Z,31.40
2023-05-17T11:38:34.719Z,31.28
2023-05-17T11:41:26.788Z,31.66
2023-05-17T11:43:54.578Z,31.46
2023-05-17T11:46:23.808Z,31.18
2023-05-17T11:48:54.629Z,31.12
2023-05-17T11:51:24.652Z,31.33
2023-05-17T11:53:55.415Z,31.40
2023-05-17T11:56:29.097Z,31.37
2023-05-17T11:59:00.159Z,31.49
2023-05-17T12:01:27.103Z,31.65
2023-05-17T12:03:59.803Z,31.74
2023-05-17T12:06:28.678Z,31.28
2023-05-17T12:08:55.754Z,31.26
2023-05-17T12:11:22.733Z,31.00
2023-05-17T12:13:52.073Z,31.14
2023-05-17T12:16:22.235Z,31.60
2023-05-17T12:18:51.225Z,31.77
2023-05-17T12:21:19.223Z,31.28
2023-05-17T12:23:50.295Z,31.43
2023-05-17T12:26:20.260Z,31.13
2023-05-17T12:28:56.230Z,31.28
2023-05-17T12:31:31.613Z,31.37
2023-05-17T12:33:59.455Z,30.43
2023-05-17T12:36:29.183Z,30.41
2023-05-17T12:38:56.953Z,29.93
2023-05-17T12:41:28.396Z,30.42
2023-05-17T12:44:06.270Z,30.46
2023-05-17T12:46:41.425Z,30.16
2023-05-17T12:49:09.691Z,30.13
2023-05-17T12:51:45.162Z,30.00
2023-05-17T12:54:26.402Z,30.46
2023-05-17T12:56:53.644Z,30.65
2023-05-17T12:59:21.456Z,30.55
2023-05-17T13:01:50.421Z,30.79
2023-05-17T13:04:19.642Z,30.70
2023-05-17T13:06:59.645Z,30.71
2023-05-17T13:09:30.780Z,30.78
2023-05-17T13:12:00.870Z,31.01
2023-05-17T13:14:42.694Z,30.50
2023-05-17T13:17:39.079Z,30.33
2023-05-17T13:20:10.548Z,31.20
2023-05-17T13:22:45.992Z,31.28
2023-05-17T13:25:15.110Z,31.05
2023-05-17T13:27:46.729Z,31.17
2023-05-17T13:30:14.909Z,30.75
2023-05-17T13:32:42.701Z,30.84
2023-05-17T13:35:09.918Z,31.10
2023-05-17T13:37:36.905Z,30.58
2023-05-17T13:40:04.773Z,30.45
2023-05-17T13:42:32.126Z,30.73
2023-05-17T13:45:01.475Z,31.16
2023-05-17T13:47:31.620Z,31.06
2023-05-17T13:50:01.718Z,30.97
2023-05-17T13:52:28.668Z,31.25
2023-05-17T13:54:55.625Z,31.66
2023-05-17T13:57:22.551Z,31.71
2023-05-17T13:59:49.838Z,31.31
2023-05-17T14:02:16.748Z,31.61
2023-05-17T14:04:43.715Z,31.35
2023-05-17T14:07:10.648Z,31.77
2023-05-17T14:09:37.734Z,31.53
2023-05-17T14:12:05.034Z,31.00
2023-05-17T14:14:32.213Z,31.31
2023-05-17T14:16:59.177Z,31.40
2023-05-17T14:19:26.259Z,31.28
2023-05-17T14:21:57.817Z,30.83
2023-05-17T14:24:24.747Z,30.99
2023-05-17T14:26:51.688Z,30.93
2023-05-17T14:29:18.628Z,30.59
2023-05-17T14:31:45.654Z,30.07
2023-05-17T14:34:12.636Z,30.35
2023-05-17T14:36:39.608Z,30.24
2023-05-17T14:39:06.571Z,30.20
2023-05-17T14:41:33.561Z,30.07
2023-05-17T14:44:00.485Z,30.35
2023-05-17T14:46:27.399Z,30.38
2023-05-17T14:48:56.260Z,29.91
2023-05-17T14:51:23.603Z,30.30
2023-05-17T14:53:50.508Z,30.52
2023-05-17T14:56:17.729Z,30.61
2023-05-17T14:58:44.731Z,30.67
2023-05-17T15:01:12.178Z,30.91
2023-05-17T15:03:39.183Z,30.68
2023-05-17T15:06:08.851Z,30.69
2023-05-17T15:08:39.169Z,31.12
2023-05-17T15:11:06.169Z,31.41
2023-05-17T15:13:33.095Z,31.42
2023-05-17T15:16:00.036Z,31.86
2023-05-17T15:18:27.047Z,31.89
2023-05-17T15:20:53.959Z,31.60
2023-05-17T15:23:20.999Z,31.87
2023-05-17T15:25:47.898Z,32.31
2023-05-17T15:28:15.021Z,32.55
2023-05-17T15:30:42.108Z,32.39
2023-05-17T15:33:09.367Z,32.35
2023-05-17T15:35:37.133Z,32.59
2023-05-17T15:38:07.640Z,32.42
2023-05-17T15:40:34.550Z,32.82
2023-05-17T15:43:01.470Z,32.61
2023-05-17T15:45:29.796Z,32.53
2023-05-17T15:47:57.185Z,32.11
2023-05-17T15:50:24.267Z,32.02
2023-05-17T15:52:51.270Z,31.87
2023-05-17T15:55:18.226Z,32.13
2023-05-17T15:57:46.468Z,32.13
2023-05-17T16:00:14.108Z,31.56
2023-05-17T16:02:41.082Z,31.77
2023-05-17T16:05:08.678Z,31.62
2023-05-17T16:07:35.596Z,32.09
2023-05-17T16:10:02.663Z,31.76
2023-05-17T16:12:29.667Z,31.66
2023-05-17T16:14:56.745Z,31.70
2023-05-17T16:17:23.789Z,31.90
2023-05-17T16:19:51.040Z,31.60
2023-05-17T16:22:18.036Z,32.36
2023-05-17T16:24:45.030Z,31.47
2023-05-17T16:27:11.965Z,32.07
2023-05-17T16:29:40.302Z,32.35
2023-05-17T16:32:08.365Z,31.51
2023-05-17T16:34:36.203Z,31.93
2023-05-17T16:37:04.479Z,32.46
2023-05-17T16:39:31.628Z,31.47
2023-05-17T16:41:58.569Z,32.21
2023-05-17T16:44:25.517Z,31.85
2023-05-17T16:46:52.490Z,31.46
2023-05-17T16:49:19.551Z,30.80
2023-05-17T16:51:46.559Z,31.11
2023-05-17T16:54:13.500Z,30.21
2023-05-17T16:56:40.414Z,30.70
2023-05-17T16:59:07.416Z,30.00
2023-05-17T17:01:34.344Z,29.56
2023-05-17T17:04:01.813Z,29.29
2023-05-17T17:06:28.830Z,29.38
2023-05-17T17:08:56.146Z,28.81
2023-05-17T17:11:23.151Z,29.03
2023-05-17T17:13:50.209Z,28.35
2023-05-17T17:16:17.672Z,28.60
2023-05-17T17:18:44.745Z,28.50
2023-05-17T17:21:11.733Z,28.43
2023-05-17T17:23:40.212Z,28.26
2023-05-17T17:26:08.778Z,28.22
2023-05-17T17:28:35.729Z,28.25
2023-05-17T17:31:02.663Z,28.18
2023-05-17T17:33:29.800Z,28.33
2023-05-17T17:35:56.752Z,28.54
2023-05-17T17:38:23.703Z,28.79
2023-05-17T17:40:50.898Z,29.08
2023-05-17T17:43:17.890Z,29.33
2023-05-17T17:45:46.923Z,30.24
2023-05-17T17:48:14.230Z,30.09
2023-05-17T17:50:41.299Z,30.33
2023-05-17T17:53:08.394Z,30.55
2023-05-17T17:55:35.478Z,30.55
2023-05-17T17:58:02.435Z,31.05
2023-05-17T18:00:29.593Z,31.00
2023-05-17T18:02:56.862Z,31.34
2023-05-17T18:05:25.818Z,31.72
2023-05-17T18:07:53.114Z,31.98
2023-05-17T18:10:20.139Z,31.68
2023-05-17T18:12:47.924Z,32.03
2023-05-17T18:15:16.454Z,32.41
2023-05-17T18:17:43.434Z,32.50
2023-05-17T18:20:10.684Z,32.82
2023-05-17T18:22:37.650Z,32.53
2023-05-17T18:25:04.777Z,32.91
2023-05-17T18:27:31.697Z,33.24
2023-05-17T18:29:58.589Z,33.25
2023-05-17T18:32:25.582Z,33.35
2023-05-17T18:34:52.576Z,33.82
2023-05-17T18:37:19.516Z,34.03
2023-05-17T18:39:46.437Z,33.84
2023-05-17T18:42:13.341Z,33.80
2023-05-17T18:44:40.301Z,34.50
2023-05-17T18:47:08.097Z,34.70
2023-05-17T18:49:36.456Z,34.48
2023-05-17T18:52:03.493Z,34.93
2023-05-17T18:54:30.398Z,35.03
2023-05-17T18:56:57.355Z,34.99
2023-05-17T18:59:24.296Z,35.32
2023-05-17T19:01:51.200Z,35.18
2023-05-17T19:04:18.206Z,35.61
2023-05-17T19:06:45.376Z,35.31
2023-05-17T19:09:12.297Z,36.03
2023-05-17T19:11:39.244Z,35.86
2023-05-17T19:14:06.259Z,35.92
2023-05-17T19:16:33.200Z,36.25
2023-05-17T19:19:00.164Z,36.67
2023-05-17T19:21:27.562Z,36.59
2023-05-17T19:23:54.564Z,36.72
2023-05-17T19:26:21.853Z,37.12
2023-05-17T19:28:48.822Z,37.08
2023-05-17T19:31:15.810Z,37.37
2023-05-17T19:33:42.906Z,37.54
2023-05-17T19:36:09.839Z,37.64
2023-05-17T19:38:36.756Z,37.97
2023-05-17T19:41:03.724Z,37.90
2023-05-17T19:43:32.212Z,38.15
2023-05-17T19:45:59.193Z,38.17
2023-05-17T19:48:26.785Z,38.38
2023-05-17T19:50:56.158Z,38.49
2023-05-17T19:53:23.830Z,38.73
2023-05-17T19:55:50.765Z,38.88
2023-05-17T19:58:17.731Z,38.85
2023-05-17T20:00:44.753Z,39.01
2023-05-17T20:03:11.870Z,39.26
2023-05-17T20:05:38.905Z,39.45
2023-05-17T20:08:08.018Z,39.59
2023-05-17T20:10:35.277Z,39.73
2023-05-17T20:13:02.477Z,39.75
2023-05-17T20:15:29.386Z,39.94
2023-05-17T20:17:56.381Z,40.13
2023-05-17T20:20:23.376Z,40.16
2023-05-17T20:22:50.320Z,40.08
2023-05-17T20:25:17.232Z,40.30
2023-05-17T20:27:44.162Z,40.38
2023-05-17T20:30:11.588Z,40.72
2023-05-17T20:32:38.533Z,40.62
2023-05-17T20:35:06.289Z,41.01
2023-05-17T20:37:33.788Z,40.80
2023-05-17T20:40:00.785Z,40.91
2023-05-17T20:42:28.949Z,40.99
2023-05-17T20:44:57.656Z,40.91
2023-05-17T20:47:25.244Z,40.98
2023-05-17T20:49:52.302Z,41.25
2023-05-17T20:52:31.408Z,41.25
2023-05-17T20:55:05.673Z,41.28
2023-05-17T20:57:32.615Z,41.36
2023-05-17T20:59:59.550Z,41.70
2023-05-17T21:02:26.708Z,41.57
2023-05-17T21:04:54.652Z,41.82
2023-05-17T21:07:22.339Z,41.68
2023-05-17T21:09:49.303Z,41.97
2023-05-17T21:12:16.198Z,42.17
2023-05-17T21:14:43.107Z,42.47
2023-05-17T21:17:10.359Z,42.56
2023-05-17T21:19:37.334Z,42.72
2023-05-17T21:22:04.486Z,42.81
2023-05-17T21:24:31.416Z,42.62
2023-05-17T21:26:58.472Z,42.90
2023-05-17T21:29:25.566Z,43.08
2023-05-17T21:31:52.549Z,42.96
2023-05-17T21:34:19.534Z,43.14
2023-05-17T21:36:46.588Z,43.02
2023-05-17T21:39:13.567Z,42.86
2023-05-17T21:41:40.517Z,43.17
2023-05-17T21:44:07.439Z,43.34
2023-05-17T21:46:34.455Z,43.32
2023-05-17T21:49:01.380Z,43.20
2023-05-17T21:51:28.302Z,43.52
2023-05-17T21:53:55.345Z,43.35
2023-05-17T21:56:22.298Z,43.35
2023-05-17T21:58:49.198Z,43.41
2023-05-17T22:01:18.087Z,43.50
2023-05-17T22:03:45.100Z,43.59
2023-05-17T22:06:12.091Z,43.57
2023-05-17T22:08:42.302Z,43.67
2023-05-17T22:11:10.957Z,43.45
2023-05-17T22:13:38.129Z,43.66
2023-05-17T22:16:06.192Z,43.58
2023-05-17T22:18:33.213Z,43.55
2023-05-17T22:21:00.168Z,43.69
2023-05-17T22:23:27.776Z,43.96
2023-05-17T22:25:57.096Z,44.03
2023-05-17T22:28:24.043Z,44.08
2023-05-17T22:30:50.945Z,44.33
2023-05-17T22:33:17.865Z,44.17
2023-05-17T22:35:44.789Z,44.37
2023-05-17T22:38:11.716Z,44.16
2023-05-17T22:40:38.635Z,44.67
2023-05-17T22:43:08.174Z,44.85
2023-05-17T22:45:35.182Z,44.67
2023-05-17T22:48:05.828Z,44.89
2023-05-17T22:50:33.146Z,44.88
2023-05-17T22:53:01.168Z,44.49
2023-05-17T22:55:28.621Z,44.79
2023-05-17T22:57:56.477Z,45.18
2023-05-17T23:00:25.046Z,45.12
2023-05-17T23:02:52.071Z,45.26
2023-05-17T23:05:19.023Z,45.19
2023-05-17T23:07:47.235Z,45.43
2023-05-17T23:10:15.416Z,45.29
2023-05-17T23:12:42.363Z,45.37
2023-05-17T23:15:10.451Z,45.72
2023-05-17T23:17:38.863Z,45.68
2023-05-17T23:20:13.014Z,45.97
2023-05-17T23:22:40.178Z,45.75
2023-05-17T23:25:07.412Z,45.74
2023-05-17T23:27:35.447Z,46.06
2023-05-17T23:30:02.800Z,46.04
2023-05-17T23:32:32.538Z,46.06
2023-05-17T23:35:05.786Z,46.29
2023-05-17T23:37:33.643Z,46.30
2023-05-17T23:40:01.038Z,46.30
2023-05-17T23:42:29.435Z,46.34
2023-05-17T23:44:56.448Z,46.42
2023-05-17T23:47:23.406Z,46.47
2023-05-17T23:49:50.943Z,46.23
2023-05-17T23:52:19.154Z,46.66
2023-05-17T23:54:47.348Z,46.98
2023-05-17T23:57:14.381Z,47.15
2023-05-17T23:59:41.841Z,47.20
